createdAt,value
2018-05-17T00:00:21.541Z,40.60
2018-05-17T00:02:47.637Z,43.83
2018-05-17T00:05:14.457Z,37.93
2018-05-17T00:07:40.553Z,38.90
2018-05-17T00:10:06.629Z,42.13
2018-05-17T00:12:33.453Z,38.67
2018-05-17T00:14:59.531Z,40.50
2018-05-17T00:17:25.636Z,38.87
2018-05-17T00:19:51.731Z,39.10
2018-05-17T00:22:17.827Z,42.27
2018-05-17T00:24:43.924Z,41.30
2018-05-17T00:27:10.014Z,42.83
2018-05-17T00:29:36.841Z,44.07
2018-05-17T00:32:02.939Z,43.43
2018-05-17T00:34:29.029Z,41.80
2018-05-17T00:36:55.121Z,49.23
2018-05-17T00:39:21.197Z,44.83
2018-05-17T00:41:47.318Z,44.47
2018-05-17T00:44:14.020Z,44.03
2018-05-17T00:46:40.093Z,51.00
2018-05-17T00:49:06.176Z,57.20
2018-05-17T00:51:32.993Z,54.83
2018-05-17T00:53:59.918Z,51.20
2018-05-17T00:56:26.000Z,49.57
2018-05-17T00:58:52.830Z,49.60
2018-05-17T01:01:19.657Z,53.73
2018-05-17T01:03:45.741Z,50.80
2018-05-17T01:06:11.859Z,50.60
2018-05-17T01:08:37.968Z,54.90
2018-05-17T01:11:04.042Z,52.00
2018-05-17T01:13:30.129Z,54.63
2018-05-17T01:15:56.210Z,51.33
2018-05-17T01:18:22.301Z,54.33
2018-05-17T01:20:48.386Z,52.27
2018-05-17T01:23:15.213Z,59.37
2018-05-17T01:25:41.297Z,53.70
2018-05-17T01:28:07.373Z,56.10
2018-05-17T01:30:34.200Z,53.60
2018-05-17T01:33:00.294Z,57.27
2018-05-17T01:35:26.376Z,55.53
2018-05-17T01:38:11.076Z,57.93
2018-05-17T01:40:37.152Z,57.27
2018-05-17T01:43:03.979Z,60.40
2018-05-17T01:45:30.056Z,58.23
2018-05-17T01:47:56.149Z,60.33
2018-05-17T01:50:22.990Z,56.03
2018-05-17T01:52:49.817Z,55.13
2018-05-17T01:55:15.921Z,55.13
2018-05-17T01:57:42.028Z,54.43
2018-05-17T02:00:08.119Z,51.30
2018-05-17T02:02:34.970Z,55.33
2018-05-17T02:05:01.067Z,56.60
2018-05-17T02:07:27.142Z,53.53
2018-05-17T02:09:53.234Z,55.80
2018-05-17T02:12:20.070Z,64.10
2018-05-17T02:14:46.897Z,55.80
2018-05-17T02:17:12.978Z,59.53
2018-05-17T02:19:39.080Z,59.07
2018-05-17T02:22:05.169Z,61.27
2018-05-17T02:24:31.261Z,64.30
2018-05-17T02:27:04.174Z,58.13
2018-05-17T02:29:30.267Z,64.47
2018-05-17T02:31:56.348Z,63.83
2018-05-17T02:34:23.183Z,69.83
2018-05-17T02:36:49.267Z,67.83
2018-05-17T02:39:15.375Z,61.83
2018-05-17T02:41:41.467Z,66.27
2018-05-17T02:44:08.309Z,65.10
2018-05-17T02:49:49.900Z,62.93
2018-05-17T02:52:21.789Z,64.33
2018-05-17T02:54:48.609Z,66.47
2018-05-17T02:57:15.223Z,71.37
2018-05-17T02:59:41.309Z,63.53
2018-05-17T03:02:07.399Z,68.40
2018-05-17T03:04:33.507Z,69.83
2018-05-17T03:06:59.607Z,72.03
2018-05-17T03:09:25.707Z,71.37
2018-05-17T03:11:58.715Z,72.63
2018-05-17T03:14:24.798Z,76.53
2018-05-17T03:16:50.881Z,78.50
2018-05-17T03:19:16.960Z,75.43
2018-05-17T03:21:43.793Z,85.93
2018-05-17T03:24:10.627Z,83.97
2018-05-17T03:26:36.717Z,84.07
2018-05-17T03:29:02.792Z,77.20
2018-05-17T03:31:29.634Z,85.23
2018-05-17T03:33:56.449Z,83.63
2018-05-17T03:36:23.052Z,84.53
2018-05-17T03:38:49.136Z,86.67
2018-05-17T03:41:15.963Z,92.73
2018-05-17T03:43:42.055Z,89.17
2018-05-17T03:46:08.144Z,91.77
2018-05-17T03:48:34.993Z,100.97
2018-05-17T03:51:01.081Z,91.27
2018-05-17T03:53:27.162Z,95.07
2018-05-17T03:56:00.130Z,93.10
2018-05-17T03:58:26.227Z,93.00
2018-05-17T04:01:11.100Z,93.87
2018-05-17T04:03:55.813Z,94.63
2018-05-17T04:06:37.405Z,84.83
2018-05-17T04:09:04.297Z,89.27
2018-05-17T04:11:31.133Z,85.17
2018-05-17T04:13:58.012Z,86.40
2018-05-17T04:16:24.822Z,87.93
2018-05-17T04:18:51.641Z,83.43
2018-05-17T04:21:17.760Z,82.60
2018-05-17T04:23:43.853Z,80.50
2018-05-17T04:26:09.938Z,78.90
2018-05-17T04:28:36.025Z,76.30
2018-05-17T04:31:02.133Z,71.00
2018-05-17T04:33:28.244Z,69.63
2018-05-17T04:35:54.361Z,74.33
2018-05-17T04:50:25.606Z,62.57
2018-05-17T04:52:51.719Z,62.33
2018-05-17T04:55:18.554Z,62.33
2018-05-17T04:57:45.392Z,65.07
2018-05-17T05:00:12.950Z,60.70
2018-05-17T05:02:39.826Z,60.03
2018-05-17T05:05:05.904Z,58.50
2018-05-17T05:07:31.984Z,62.43
2018-05-17T05:09:58.833Z,58.70
2018-05-17T05:12:24.913Z,61.23
2018-05-17T05:14:51.750Z,62.07
2018-05-17T05:17:18.581Z,58.47
2018-05-17T05:19:44.674Z,60.60
2018-05-17T05:22:10.777Z,63.87
2018-05-17T05:24:36.857Z,58.30
2018-05-17T05:27:02.945Z,58.03
2018-05-17T05:29:29.039Z,58.00
2018-05-17T05:31:55.131Z,59.90
2018-05-17T05:34:21.213Z,60.03
2018-05-17T05:36:47.294Z,57.47
2018-05-17T05:39:13.383Z,53.20
2018-05-17T05:41:39.467Z,54.63
2018-05-17T05:44:06.287Z,57.97
2018-05-17T05:46:32.371Z,53.43
2018-05-17T05:48:58.462Z,50.90
2018-05-17T05:51:24.541Z,51.20
2018-05-17T05:53:50.634Z,52.63
2018-05-17T05:56:16.725Z,51.13
2018-05-17T05:58:43.565Z,45.53
2018-05-17T06:01:11.781Z,50.43
2018-05-17T06:03:37.882Z,46.30
2018-05-17T06:06:03.966Z,41.67
2018-05-17T06:08:30.056Z,43.43
2018-05-17T06:10:56.153Z,43.20
2018-05-17T06:13:22.970Z,44.67
2018-05-17T06:15:49.054Z,43.60
2018-05-17T06:18:15.140Z,38.77
2018-05-17T06:20:41.965Z,42.03
2018-05-17T06:23:08.047Z,39.47
2018-05-17T06:25:34.137Z,39.90
2018-05-17T06:28:00.957Z,41.33
2018-05-17T06:30:27.164Z,41.27
2018-05-17T06:32:53.174Z,39.87
2018-05-17T06:35:19.268Z,40.30
2018-05-17T06:37:45.363Z,38.17
2018-05-17T06:40:11.445Z,41.33
2018-05-17T06:42:37.546Z,38.00
2018-05-17T06:45:03.636Z,38.10
2018-05-17T06:47:29.730Z,36.73
2018-05-17T06:49:55.827Z,36.07
2018-05-17T06:52:21.918Z,35.40
2018-05-17T06:54:48.006Z,34.97
2018-05-17T06:57:14.105Z,35.33
2018-05-17T06:59:40.209Z,34.43
2018-05-17T07:02:07.035Z,31.33
2018-05-17T07:04:33.145Z,31.63
2018-05-17T07:06:59.250Z,30.08
2018-05-17T07:09:25.361Z,29.95
2018-05-17T07:11:51.467Z,30.27
2018-05-17T07:14:17.553Z,31.45
2018-05-17T07:16:43.650Z,30.08
2018-05-17T07:19:09.725Z,29.55
2018-05-17T07:21:35.817Z,29.98
2018-05-17T07:24:01.894Z,28.38
2018-05-17T07:26:27.985Z,29.80
2018-05-17T07:28:54.074Z,27.30
2018-05-17T07:31:20.265Z,30.67
2018-05-17T07:33:46.278Z,28.98
2018-05-17T07:36:14.513Z,29.75
2018-05-17T07:38:40.612Z,28.75
2018-05-17T07:41:06.708Z,25.70
2018-05-17T07:43:33.530Z,28.12
2018-05-17T07:45:59.620Z,28.55
2018-05-17T07:48:25.705Z,29.33
2018-05-17T07:50:52.555Z,27.00
2018-05-17T07:53:19.389Z,28.15
2018-05-17T07:55:46.225Z,26.77
2018-05-17T07:58:13.079Z,26.37
2018-05-17T08:00:39.913Z,27.93
2018-05-17T08:03:06.738Z,26.17
2018-05-17T08:05:32.822Z,25.60
2018-05-17T08:07:58.918Z,25.17
2018-05-17T08:10:25.741Z,23.93
2018-05-17T08:12:51.837Z,25.60
2018-05-17T08:15:17.913Z,23.57
2018-05-17T08:17:44.747Z,25.17
2018-05-17T08:20:11.581Z,23.55
2018-05-17T08:22:37.726Z,21.67
2018-05-17T08:25:03.752Z,24.67
2018-05-17T08:27:29.847Z,19.45
2018-05-17T08:29:55.929Z,18.73
2018-05-17T08:32:22.030Z,18.60
2018-05-17T08:34:48.120Z,20.37
2018-05-17T08:37:14.205Z,19.02
2018-05-17T08:39:40.291Z,17.58
2018-05-17T08:42:07.135Z,19.08
2018-05-17T08:44:33.999Z,17.70
2018-05-17T08:47:00.817Z,17.87
2018-05-17T08:49:27.689Z,14.93
2018-05-17T08:51:53.794Z,17.10
2018-05-17T08:54:20.692Z,16.85
2018-05-17T08:56:46.741Z,16.90
2018-05-17T08:59:12.822Z,17.23
2018-05-17T09:01:38.919Z,15.20
2018-05-17T09:04:05.759Z,17.08
2018-05-17T09:06:32.589Z,14.45
2018-05-17T09:08:58.673Z,15.25
2018-05-17T09:11:24.758Z,14.50
2018-05-17T09:13:50.874Z,14.57
2018-05-17T09:16:17.693Z,16.23
2018-05-17T09:18:43.798Z,16.77
2018-05-17T09:21:09.877Z,17.45
2018-05-17T09:23:37.346Z,15.05
2018-05-17T09:26:03.428Z,15.38
2018-05-17T09:28:29.527Z,18.12
2018-05-17T09:30:55.614Z,17.90
2018-05-17T09:33:21.706Z,24.50
2018-05-17T09:35:47.819Z,17.83
2018-05-17T09:38:13.897Z,19.48
2018-05-17T09:40:39.977Z,21.70
2018-05-17T09:43:06.077Z,22.00
2018-05-17T09:45:32.161Z,23.73
2018-05-17T09:47:58.993Z,20.75
2018-05-17T09:50:25.805Z,21.92
2018-05-17T09:52:51.903Z,19.10
2018-05-17T09:55:17.985Z,22.80
2018-05-17T09:57:44.831Z,24.95
2018-05-17T10:00:17.805Z,24.83
2018-05-17T10:02:43.893Z,23.17
2018-05-17T10:05:09.986Z,25.65
2018-05-17T10:07:36.063Z,20.48
2018-05-17T10:10:02.141Z,21.90
2018-05-17T10:12:28.225Z,24.40
2018-05-17T10:14:54.333Z,24.58
2018-05-17T10:17:20.427Z,22.50
2018-05-17T10:19:46.526Z,19.65
2018-05-17T10:22:13.358Z,19.37
2018-05-17T10:24:39.451Z,22.33
2018-05-17T10:27:05.546Z,25.12
2018-05-17T10:29:31.704Z,20.00
2018-05-17T10:31:58.465Z,25.60
2018-05-17T10:34:24.557Z,21.37
2018-05-17T10:36:50.642Z,21.40
2018-05-17T10:39:17.465Z,27.02
2018-05-17T10:41:43.542Z,23.55
2018-05-17T10:44:09.629Z,21.12
2018-05-17T10:46:37.210Z,25.35
2018-05-17T10:49:03.386Z,23.08
2018-05-17T10:51:30.141Z,23.90
2018-05-17T10:53:56.225Z,21.75
2018-05-17T10:56:22.310Z,23.62
2018-05-17T10:58:49.175Z,21.37
2018-05-17T11:01:15.286Z,26.98
2018-05-17T11:03:42.122Z,21.85
2018-05-17T11:06:08.966Z,20.02
2018-05-17T11:08:35.817Z,19.98
2018-05-17T11:11:02.667Z,19.62
2018-05-17T11:13:28.756Z,24.85
2018-05-17T11:15:54.859Z,22.55
2018-05-17T11:18:20.957Z,26.77
2018-05-17T11:20:47.067Z,19.48
2018-05-17T11:23:13.166Z,20.95
2018-05-17T11:25:39.261Z,20.88
2018-05-17T11:28:05.365Z,23.80
2018-05-17T11:30:31.465Z,23.02
2018-05-17T11:32:58.316Z,24.12
2018-05-17T11:35:24.422Z,29.05
2018-05-17T11:37:51.274Z,24.60
2018-05-17T11:40:18.173Z,23.98
2018-05-17T11:42:44.237Z,23.80
2018-05-17T11:45:11.095Z,23.25
2018-05-17T11:47:37.185Z,24.67
2018-05-17T11:50:03.273Z,22.25
2018-05-17T11:52:29.368Z,22.77
2018-05-17T11:54:56.205Z,29.00
2018-05-17T11:57:23.050Z,25.95
2018-05-17T11:59:49.892Z,22.73
2018-05-17T12:02:16.727Z,21.77
2018-05-17T12:04:43.544Z,22.40
2018-05-17T12:07:09.706Z,25.08
2018-05-17T12:09:35.734Z,17.45
2018-05-17T12:12:02.565Z,22.17
2018-05-17T12:14:29.389Z,22.33
2018-05-17T12:16:55.484Z,21.27
2018-05-17T12:19:21.573Z,21.65
2018-05-17T12:21:47.657Z,17.95
2018-05-17T12:24:13.749Z,22.40
2018-05-17T12:26:39.849Z,24.35
2018-05-17T12:29:06.679Z,24.00
2018-05-17T12:31:33.506Z,23.05
2018-05-17T12:33:59.601Z,20.17
2018-05-17T12:36:25.714Z,20.60
2018-05-17T12:38:51.809Z,18.80
2018-05-17T12:41:17.901Z,22.90
2018-05-17T12:43:43.990Z,25.05
2018-05-17T12:46:10.085Z,27.70
2018-05-17T12:48:36.913Z,21.95
2018-05-17T12:51:03.006Z,25.27
2018-05-17T12:53:29.092Z,21.83
2018-05-17T12:55:55.181Z,21.95
2018-05-17T12:58:21.282Z,24.33
2018-05-17T13:00:47.379Z,25.58
2018-05-17T13:03:13.486Z,20.58
2018-05-17T13:05:39.587Z,20.30
2018-05-17T13:08:05.684Z,23.23
2018-05-17T13:10:31.772Z,22.77
2018-05-17T13:12:58.000Z,22.15
2018-05-17T13:15:24.019Z,23.83
2018-05-17T13:17:50.122Z,25.02
2018-05-17T13:20:16.972Z,24.17
2018-05-17T13:22:43.827Z,21.20
2018-05-17T13:25:09.928Z,28.87
2018-05-17T13:27:36.029Z,30.60
2018-05-17T13:30:02.108Z,23.50
2018-05-17T13:32:28.208Z,23.85
2018-05-17T13:34:55.042Z,21.62
2018-05-17T13:37:21.194Z,24.17
2018-05-17T13:39:47.249Z,22.13
2018-05-17T13:42:13.353Z,21.02
2018-05-17T13:44:39.443Z,19.23
2018-05-17T13:47:05.555Z,20.95
2018-05-17T13:49:32.337Z,27.45
2018-05-17T13:51:58.452Z,22.15
2018-05-17T13:54:25.283Z,24.35
2018-05-17T13:56:51.365Z,25.95
2018-05-17T13:59:17.515Z,27.87
2018-05-17T14:01:43.597Z,27.92
2018-05-17T14:04:09.698Z,32.00
2018-05-17T14:06:36.527Z,23.58
2018-05-17T14:09:02.609Z,23.27
2018-05-17T14:11:28.695Z,26.87
2018-05-17T14:13:55.542Z,28.10
2018-05-17T14:16:22.374Z,25.50
2018-05-17T14:18:49.218Z,23.90
2018-05-17T14:21:16.042Z,28.65
2018-05-17T14:23:42.141Z,24.10
2018-05-17T14:26:08.222Z,26.73
2018-05-17T14:28:34.305Z,23.40
2018-05-17T14:31:00.377Z,28.67
2018-05-17T14:33:27.215Z,30.67
2018-05-17T14:35:54.037Z,24.83
2018-05-17T14:38:20.153Z,29.80
2018-05-17T14:40:46.242Z,27.37
2018-05-17T14:43:12.333Z,27.37
2018-05-17T14:45:39.157Z,28.90
2018-05-17T14:48:05.246Z,32.13
2018-05-17T14:50:31.334Z,28.33
2018-05-17T14:52:58.189Z,23.52
2018-05-17T14:55:24.279Z,31.20
2018-05-17T14:57:50.373Z,28.27
2018-05-17T15:00:16.477Z,27.87
2018-05-17T15:02:42.577Z,35.97
2018-05-17T15:05:08.686Z,26.50
2018-05-17T15:07:34.788Z,25.75
2018-05-17T15:10:00.893Z,30.58
2018-05-17T15:12:26.997Z,26.48
2018-05-17T15:14:53.097Z,25.92
2018-05-17T15:17:19.948Z,25.35
2018-05-17T15:19:46.793Z,30.77
2018-05-17T15:22:13.630Z,27.92
2018-05-17T15:24:39.758Z,25.27
2018-05-17T15:27:06.589Z,31.65
2018-05-17T15:29:33.454Z,25.77
2018-05-17T15:32:00.277Z,28.67
2018-05-17T15:34:27.124Z,28.35
2018-05-17T15:36:53.956Z,27.87
2018-05-17T15:39:20.064Z,27.08
2018-05-17T15:41:46.189Z,26.00
2018-05-17T15:44:12.278Z,24.60
2018-05-17T15:46:38.390Z,28.85
2018-05-17T15:49:04.511Z,26.48
2018-05-17T15:51:31.355Z,25.58
2018-05-17T15:53:57.457Z,30.15
2018-05-17T15:56:23.565Z,28.48
2018-05-17T15:58:49.661Z,27.80
2018-05-17T16:01:15.758Z,27.80
2018-05-17T16:03:42.620Z,33.80
2018-05-17T16:06:09.517Z,26.77
2018-05-17T16:08:35.694Z,31.12
2018-05-17T16:11:01.710Z,33.45
2018-05-17T16:13:27.802Z,36.15
2018-05-17T16:15:54.629Z,33.13
2018-05-17T16:18:20.712Z,28.92
2018-05-17T16:20:46.802Z,29.00
2018-05-17T16:23:12.896Z,33.65
2018-05-17T16:25:39.008Z,30.88
2018-05-17T16:28:05.092Z,32.63
2018-05-17T16:30:31.929Z,36.97
2018-05-17T16:32:58.754Z,35.85
2018-05-17T16:35:24.847Z,30.00
2018-05-17T16:37:50.937Z,33.30
2018-05-17T16:40:17.026Z,35.58
2018-05-17T16:42:43.171Z,36.72
2018-05-17T16:45:09.230Z,32.15
2018-05-17T16:47:35.323Z,34.40
2018-05-17T16:50:02.146Z,33.63
2018-05-17T16:52:28.265Z,37.53
2018-05-17T16:54:54.325Z,31.62
2018-05-17T16:57:21.176Z,38.47
2018-05-17T16:59:47.274Z,35.92
2018-05-17T17:02:13.391Z,38.63
2018-05-17T17:04:41.079Z,35.38
2018-05-17T17:07:07.916Z,30.15
2018-05-17T17:09:36.138Z,44.60
2018-05-17T17:12:02.224Z,34.75
2018-05-17T17:14:28.319Z,36.00
2018-05-17T17:16:54.440Z,39.35
2018-05-17T17:19:20.537Z,41.28
2018-05-17T17:21:46.642Z,37.33
2018-05-17T17:24:12.742Z,38.25
2018-05-17T17:26:39.589Z,38.42
2018-05-17T17:29:06.429Z,36.63
2018-05-17T17:31:33.268Z,33.90
2018-05-17T17:34:00.115Z,37.92
2018-05-17T17:36:27.675Z,37.40
2018-05-17T17:38:54.522Z,39.17
2018-05-17T17:41:21.362Z,34.28
2018-05-17T17:43:48.191Z,35.15
2018-05-17T17:46:14.314Z,40.05
2018-05-17T17:48:40.420Z,32.85
2018-05-17T17:51:06.546Z,28.15
2018-05-17T17:53:32.647Z,36.28
2018-05-17T17:55:58.741Z,34.15
2018-05-17T17:58:25.598Z,31.95
2018-05-17T18:00:52.422Z,31.87
2018-05-17T18:03:19.253Z,35.90
2018-05-17T18:05:45.343Z,33.20
2018-05-17T18:08:11.441Z,31.62
2018-05-17T18:10:37.522Z,34.03
2018-05-17T18:13:03.632Z,32.28
2018-05-17T18:15:29.727Z,37.03
2018-05-17T18:17:57.341Z,30.47
2018-05-17T18:20:23.430Z,37.67
2018-05-17T18:22:49.537Z,35.40
2018-05-17T18:25:15.613Z,32.10
2018-05-17T18:27:43.724Z,37.30
2018-05-17T18:30:09.809Z,36.60
2018-05-17T18:32:35.931Z,36.00
2018-05-17T18:35:01.989Z,33.40
2018-05-17T18:37:28.817Z,37.07
2018-05-17T18:39:55.649Z,36.40
2018-05-17T18:42:21.728Z,36.43
2018-05-17T18:44:47.822Z,37.17
2018-05-17T18:47:14.649Z,35.77
2018-05-17T18:49:40.724Z,36.10
2018-05-17T18:52:06.805Z,36.27
2018-05-17T18:54:33.703Z,37.33
2018-05-17T18:56:59.751Z,32.43
2018-05-17T18:59:25.854Z,40.53
2018-05-17T19:01:51.954Z,35.90
2018-05-17T19:04:18.131Z,39.93
2018-05-17T19:06:44.859Z,36.37
2018-05-17T19:09:10.958Z,35.03
2018-05-17T19:11:37.040Z,30.90
2018-05-17T19:14:03.936Z,32.90
2018-05-17T19:16:30.724Z,36.13
2018-05-17T19:18:57.553Z,35.83
2018-05-17T19:21:23.638Z,34.73
2018-05-17T19:23:49.751Z,33.23
2018-05-17T19:26:15.836Z,32.93
2018-05-17T19:28:41.963Z,35.90
2018-05-17T19:31:08.036Z,40.13
2018-05-17T19:33:34.151Z,37.43
2018-05-17T19:36:00.234Z,34.83
2018-05-17T19:38:26.342Z,34.87
2018-05-17T19:40:53.237Z,30.37
2018-05-17T19:43:19.358Z,31.97
2018-05-17T19:45:46.186Z,38.53
2018-05-17T19:48:13.056Z,33.97
2018-05-17T19:50:39.180Z,31.40
2018-05-17T19:53:05.298Z,34.47
2018-05-17T19:55:31.408Z,37.43
2018-05-17T19:57:57.523Z,33.53
2018-05-17T20:00:23.669Z,35.40
2018-05-17T20:02:50.525Z,33.57
2018-05-17T20:05:17.380Z,36.53
2018-05-17T20:07:43.481Z,34.33
2018-05-17T20:10:10.345Z,34.07
2018-05-17T20:12:36.483Z,31.03
2018-05-17T20:15:02.675Z,39.13
2018-05-17T20:17:29.632Z,33.97
2018-05-17T20:19:56.407Z,42.17
2018-05-17T20:22:22.609Z,38.07
2018-05-17T20:24:48.810Z,29.87
2018-05-17T20:27:14.993Z,36.43
2018-05-17T20:29:41.179Z,38.00
2018-05-17T20:32:08.090Z,36.07
2018-05-17T20:34:34.318Z,35.03
2018-05-17T20:37:02.044Z,42.07
2018-05-17T20:39:28.230Z,34.50
2018-05-17T20:41:55.153Z,33.70
2018-05-17T20:44:21.338Z,32.70
2018-05-17T20:46:47.517Z,32.67
2018-05-17T20:49:14.448Z,31.87
2018-05-17T20:51:40.613Z,35.73
2018-05-17T20:54:06.770Z,31.33
2018-05-17T20:56:32.946Z,33.73
2018-05-17T20:58:59.108Z,36.17
2018-05-17T21:01:25.278Z,40.50
2018-05-17T21:03:51.485Z,34.67
2018-05-17T21:06:17.649Z,41.27
2018-05-17T21:08:43.838Z,41.00
2018-05-17T21:11:10.006Z,35.00
2018-05-17T21:13:36.180Z,44.03
2018-05-17T21:16:02.355Z,36.77
2018-05-17T21:18:28.569Z,34.40
2018-05-17T21:20:54.740Z,38.90
2018-05-17T21:23:21.679Z,33.37
2018-05-17T21:25:47.860Z,39.77
2018-05-17T21:28:14.067Z,35.73
2018-05-17T21:30:40.886Z,32.57
2018-05-17T21:33:07.801Z,40.67
2018-05-17T21:35:34.007Z,37.43
2018-05-17T21:38:00.174Z,39.47
2018-05-17T21:40:26.362Z,39.30
2018-05-17T21:42:52.571Z,36.23
2018-05-17T21:45:18.771Z,45.13
2018-05-17T21:47:45.708Z,39.03
2018-05-17T21:50:12.608Z,37.50
2018-05-17T21:52:38.765Z,41.27
2018-05-17T21:55:04.947Z,37.63
2018-05-17T21:57:31.189Z,33.53
2018-05-17T21:59:57.402Z,39.83
2018-05-17T22:02:23.606Z,39.10
2018-05-17T22:04:50.514Z,38.70
2018-05-17T22:07:16.745Z,39.23
2018-05-17T22:09:42.872Z,36.60
2018-05-17T22:12:09.063Z,39.77
2018-05-17T22:14:35.235Z,39.57
2018-05-17T22:17:01.432Z,34.37
2018-05-17T22:19:27.606Z,38.13
2018-05-17T22:21:53.855Z,35.10
2018-05-17T22:24:20.037Z,45.03
2018-05-17T22:26:46.924Z,40.17
2018-05-17T22:29:13.098Z,38.10
2018-05-17T22:31:39.274Z,50.80
2018-05-17T22:34:06.187Z,43.73
2018-05-17T22:36:33.004Z,40.37
2018-05-17T22:38:59.790Z,40.50
2018-05-17T22:41:26.764Z,36.00
2018-05-17T22:43:52.983Z,41.00
2018-05-17T22:46:19.155Z,40.43
2018-05-17T22:48:45.332Z,33.97
2018-05-17T22:51:12.248Z,37.30
2018-05-17T22:53:38.402Z,41.33
2018-05-17T22:56:05.306Z,43.43
2018-05-17T22:58:32.400Z,41.90
2018-05-17T23:00:59.288Z,37.70
2018-05-17T23:03:25.468Z,40.50
2018-05-17T23:05:51.646Z,30.57
2018-05-17T23:08:17.839Z,29.83
2018-05-17T23:10:44.020Z,30.07
2018-05-17T23:13:11.671Z,39.77
2018-05-17T23:15:37.839Z,32.77
2018-05-17T23:18:04.767Z,27.47
2018-05-17T23:20:30.979Z,32.07
2018-05-17T23:22:57.171Z,29.20
2018-05-17T23:25:23.356Z,32.10
2018-05-17T23:27:50.284Z,29.00
2018-05-17T23:30:17.198Z,26.70
2018-05-17T23:32:43.412Z,27.17
2018-05-17T23:35:09.583Z,28.50
2018-05-17T23:37:35.812Z,26.07
2018-05-17T23:40:20.719Z,29.63
2018-05-17T23:42:46.962Z,32.73
2018-05-17T23:45:13.179Z,30.73
2018-05-17T23:47:39.865Z,25.67
2018-05-17T23:50:06.079Z,32.20
2018-05-17T23:52:32.271Z,33.17
2018-05-17T23:54:59.219Z,29.60
2018-05-17T23:57:25.387Z,32.13
2018-05-17T23:59:51.612Z,28.97
